sensor_id;sensor_type;location;lat;lon;timestamp;pressure;altitude;pressure_sealevel;temperature
57468;BMP280;43311;51.196;7.518;2024-02-26T00:00:26;95193.28;;;4.92
57468;BMP280;43311;51.196;7.518;2024-02-26T00:02:51;95212.09;;;5.16
57468;BMP280;43311;51.196;7.518;2024-02-26T00:05:17;95207.97;;;5.18
57468;BMP280;43311;51.196;7.518;2024-02-26T00:07:42;95178.16;;;5.07
57468;BMP280;43311;51.196;7.518;2024-02-26T00:10:08;95202.94;;;5.27
57468;BMP280;43311;51.196;7.518;2024-02-26T00:12:34;95196.19;;;5.30
57468;BMP280;43311;51.196;7.518;2024-02-26T00:14:59;95199.63;;;5.27
57468;BMP280;43311;51.196;7.518;2024-02-26T00:17:24;95204.88;;;5.23
57468;BMP280;43311;51.196;7.518;2024-02-26T00:19:50;95190.84;;;5.21
57468;BMP280;43311;51.196;7.518;2024-02-26T00:22:15;95190.28;;;5.29
57468;BMP280;43311;51.196;7.518;2024-02-26T00:24:41;95185.81;;;5.30
57468;BMP280;43311;51.196;7.518;2024-02-26T00:27:06;95188.66;;;5.35
57468;BMP280;43311;51.196;7.518;2024-02-26T00:29:32;95183.19;;;5.30
57468;BMP280;43311;51.196;7.518;2024-02-26T00:31:57;95181.19;;;5.37
57468;BMP280;43311;51.196;7.518;2024-02-26T00:34:23;95175.00;;;5.31
57468;BMP280;43311;51.196;7.518;2024-02-26T00:36:49;95182.63;;;5.38
57468;BMP280;43311;51.196;7.518;2024-02-26T00:39:14;95188.41;;;5.45
57468;BMP280;43311;51.196;7.518;2024-02-26T00:41:40;95175.59;;;5.39
57468;BMP280;43311;51.196;7.518;2024-02-26T00:44:06;95201.00;;;5.47
57468;BMP280;43311;51.196;7.518;2024-02-26T00:46:31;95180.88;;;5.35
57468;BMP280;43311;51.196;7.518;2024-02-26T00:48:57;95188.66;;;5.35
57468;BMP280;43311;51.196;7.518;2024-02-26T00:51:22;95180.38;;;5.40
57468;BMP280;43311;51.196;7.518;2024-02-26T00:53:47;95169.56;;;5.26
57468;BMP280;43311;51.196;7.518;2024-02-26T00:56:13;95167.94;;;5.32
57468;BMP280;43311;51.196;7.518;2024-02-26T00:58:38;95184.81;;;5.39
57468;BMP280;43311;51.196;7.518;2024-02-26T01:01:04;95176.72;;;5.38
57468;BMP280;43311;51.196;7.518;2024-02-26T01:03:29;95175.75;;;5.32
57468;BMP280;43311;51.196;7.518;2024-02-26T01:05:54;95167.22;;;5.31
57468;BMP280;43311;51.196;7.518;2024-02-26T01:08:20;95158.13;;;5.23
57468;BMP280;43311;51.196;7.518;2024-02-26T01:10:45;95171.44;;;5.25
57468;BMP280;43311;51.196;7.518;2024-02-26T01:13:10;95177.44;;;5.38
57468;BMP280;43311;51.196;7.518;2024-02-26T01:15:36;95176.09;;;5.34
57468;BMP280;43311;51.196;7.518;2024-02-26T01:18:01;95172.59;;;5.24
57468;BMP280;43311;51.196;7.518;2024-02-26T01:20:27;95181.44;;;5.27
57468;BMP280;43311;51.196;7.518;2024-02-26T01:22:52;95181.31;;;5.14
57468;BMP280;43311;51.196;7.518;2024-02-26T01:25:17;95176.47;;;5.16
57468;BMP280;43311;51.196;7.518;2024-02-26T01:27:43;95178.50;;;5.25
57468;BMP280;43311;51.196;7.518;2024-02-26T01:30:10;95190.94;;;5.33
57468;BMP280;43311;51.196;7.518;2024-02-26T01:32:35;95188.16;;;5.24
57468;BMP280;43311;51.196;7.518;2024-02-26T01:35:02;95191.00;;;5.14
57468;BMP280;43311;51.196;7.518;2024-02-26T01:37:28;95183.28;;;5.10
57468;BMP280;43311;51.196;7.518;2024-02-26T01:39:55;95173.69;;;5.07
57468;BMP280;43311;51.196;7.518;2024-02-26T01:42:20;95189.28;;;5.07
57468;BMP280;43311;51.196;7.518;2024-02-26T01:44:46;95195.78;;;5.15
57468;BMP280;43311;51.196;7.518;2024-02-26T01:47:11;95189.44;;;5.00
57468;BMP280;43311;51.196;7.518;2024-02-26T01:49:38;95179.13;;;5.13
57468;BMP280;43311;51.196;7.518;2024-02-26T01:52:06;95198.38;;;5.15
57468;BMP280;43311;51.196;7.518;2024-02-26T01:54:33;95181.97;;;5.02
57468;BMP280;43311;51.196;7.518;2024-02-26T01:57:00;95197.72;;;5.11
57468;BMP280;43311;51.196;7.518;2024-02-26T01:59:26;95193.22;;;4.96
57468;BMP280;43311;51.196;7.518;2024-02-26T02:01:54;95190.16;;;5.01
57468;BMP280;43311;51.196;7.518;2024-02-26T02:04:21;95200.47;;;5.20
57468;BMP280;43311;51.196;7.518;2024-02-26T02:06:48;95199.69;;;5.23
57468;BMP280;43311;51.196;7.518;2024-02-26T02:09:13;95200.81;;;5.22
57468;BMP280;43311;51.196;7.518;2024-02-26T02:11:39;95180.94;;;5.16
57468;BMP280;43311;51.196;7.518;2024-02-26T02:14:04;95189.94;;;5.11
57468;BMP280;43311;51.196;7.518;2024-02-26T02:16:30;95188.41;;;5.14
57468;BMP280;43311;51.196;7.518;2024-02-26T02:18:55;95200.91;;;5.19
57468;BMP280;43311;51.196;7.518;2024-02-26T02:21:20;95184.59;;;5.18
57468;BMP280;43311;51.196;7.518;2024-02-26T02:23:46;95197.09;;;5.23
57468;BMP280;43311;51.196;7.518;2024-02-26T02:26:13;95183.47;;;5.19
57468;BMP280;43311;51.196;7.518;2024-02-26T02:28:39;95196.75;;;5.21
57468;BMP280;43311;51.196;7.518;2024-02-26T02:31:05;95189.03;;;5.18
57468;BMP280;43311;51.196;7.518;2024-02-26T02:33:30;95198.84;;;5.10
57468;BMP280;43311;51.196;7.518;2024-02-26T02:35:56;95206.78;;;5.03
57468;BMP280;43311;51.196;7.518;2024-02-26T02:38:21;95197.56;;;5.02
57468;BMP280;43311;51.196;7.518;2024-02-26T02:40:46;95199.06;;;5.00
57468;BMP280;43311;51.196;7.518;2024-02-26T02:43:12;95191.03;;;4.94
57468;BMP280;43311;51.196;7.518;2024-02-26T02:45:37;95191.75;;;4.95
57468;BMP280;43311;51.196;7.518;2024-02-26T02:48:03;95190.97;;;4.98
57468;BMP280;43311;51.196;7.518;2024-02-26T02:50:28;95194.03;;;4.93
57468;BMP280;43311;51.196;7.518;2024-02-26T02:52:54;95198.09;;;4.94
57468;BMP280;43311;51.196;7.518;2024-02-26T02:55:19;95190.06;;;4.88
57468;BMP280;43311;51.196;7.518;2024-02-26T02:57:45;95172.38;;;4.99
57468;BMP280;43311;51.196;7.518;2024-02-26T03:00:11;95168.00;;;4.96
57468;BMP280;43311;51.196;7.518;2024-02-26T03:02:36;95180.66;;;4.94
57468;BMP280;43311;51.196;7.518;2024-02-26T03:05:05;95174.34;;;4.95
57468;BMP280;43311;51.196;7.518;2024-02-26T03:07:30;95180.00;;;4.90
57468;BMP280;43311;51.196;7.518;2024-02-26T03:09:56;95161.97;;;4.83
57468;BMP280;43311;51.196;7.518;2024-02-26T03:12:21;95166.97;;;4.74
57468;BMP280;43311;51.196;7.518;2024-02-26T03:14:47;95172.00;;;4.81
57468;BMP280;43311;51.196;7.518;2024-02-26T03:17:12;95156.81;;;4.64
57468;BMP280;43311;51.196;7.518;2024-02-26T03:19:37;95163.28;;;4.56
57468;BMP280;43311;51.196;7.518;2024-02-26T03:22:03;95167.78;;;4.72
57468;BMP280;43311;51.196;7.518;2024-02-26T03:24:28;95162.47;;;4.59
57468;BMP280;43311;51.196;7.518;2024-02-26T03:26:54;95168.59;;;4.69
57468;BMP280;43311;51.196;7.518;2024-02-26T03:29:19;95184.16;;;4.69
57468;BMP280;43311;51.196;7.518;2024-02-26T03:31:45;95167.41;;;4.54
57468;BMP280;43311;51.196;7.518;2024-02-26T03:34:10;95165.94;;;4.53
57468;BMP280;43311;51.196;7.518;2024-02-26T03:36:37;95181.09;;;4.73
57468;BMP280;43311;51.196;7.518;2024-02-26T03:39:03;95178.28;;;4.65
57468;BMP280;43311;51.196;7.518;2024-02-26T03:41:33;95170.19;;;4.63
57468;BMP280;43311;51.196;7.518;2024-02-26T03:43:58;95170.34;;;4.56
57468;BMP280;43311;51.196;7.518;2024-02-26T03:46:24;95179.56;;;4.76
57468;BMP280;43311;51.196;7.518;2024-02-26T03:48:49;95150.06;;;4.51
57468;BMP280;43311;51.196;7.518;2024-02-26T03:51:14;95168.94;;;4.51
57468;BMP280;43311;51.196;7.518;2024-02-26T03:53:40;95165.16;;;4.56
57468;BMP280;43311;51.196;7.518;2024-02-26T03:56:06;95158.06;;;4.56
57468;BMP280;43311;51.196;7.518;2024-02-26T03:58:31;95157.44;;;4.52
57468;BMP280;43311;51.196;7.518;2024-02-26T04:00:57;95155.06;;;4.58
57468;BMP280;43311;51.196;7.518;2024-02-26T04:03:22;95153.78;;;4.50
57468;BMP280;43311;51.196;7.518;2024-02-26T04:05:47;95171.75;;;4.60
57468;BMP280;43311;51.196;7.518;2024-02-26T04:08:13;95156.78;;;4.48
57468;BMP280;43311;51.196;7.518;2024-02-26T04:10:38;95160.75;;;4.53
57468;BMP280;43311;51.196;7.518;2024-02-26T04:13:05;95164.88;;;4.50
57468;BMP280;43311;51.196;7.518;2024-02-26T04:15:31;95173.50;;;4.63
57468;BMP280;43311;51.196;7.518;2024-02-26T04:17:57;95167.34;;;4.57
57468;BMP280;43311;51.196;7.518;2024-02-26T04:20:22;95182.13;;;4.60
57468;BMP280;43311;51.196;7.518;2024-02-26T04:22:47;95165.22;;;4.52
57468;BMP280;43311;51.196;7.518;2024-02-26T04:25:13;95177.84;;;4.50
57468;BMP280;43311;51.196;7.518;2024-02-26T04:27:39;95186.56;;;4.60
57468;BMP280;43311;51.196;7.518;2024-02-26T04:30:06;95162.03;;;4.45
57468;BMP280;43311;51.196;7.518;2024-02-26T04:32:31;95176.19;;;4.60
57468;BMP280;43311;51.196;7.518;2024-02-26T04:34:57;95174.06;;;4.55
57468;BMP280;43311;51.196;7.518;2024-02-26T04:37:22;95165.03;;;4.43
57468;BMP280;43311;51.196;7.518;2024-02-26T04:39:47;95184.44;;;4.55
57468;BMP280;43311;51.196;7.518;2024-02-26T04:42:13;95177.72;;;4.57
57468;BMP280;43311;51.196;7.518;2024-02-26T04:44:39;95180.50;;;4.47
57468;BMP280;43311;51.196;7.518;2024-02-26T04:47:04;95192.94;;;4.55
57468;BMP280;43311;51.196;7.518;2024-02-26T04:49:30;95178.72;;;4.44
57468;BMP280;43311;51.196;7.518;2024-02-26T04:51:55;95191.22;;;4.49
57468;BMP280;43311;51.196;7.518;2024-02-26T04:54:20;95203.41;;;4.52
57468;BMP280;43311;51.196;7.518;2024-02-26T04:56:46;95213.38;;;4.53
57468;BMP280;43311;51.196;7.518;2024-02-26T04:59:11;95210.38;;;4.55
57468;BMP280;43311;51.196;7.518;2024-02-26T05:01:36;95207.78;;;4.55
57468;BMP280;43311;51.196;7.518;2024-02-26T05:04:02;95224.59;;;4.66
57468;BMP280;43311;51.196;7.518;2024-02-26T05:06:31;95198.41;;;4.61
57468;BMP280;43311;51.196;7.518;2024-02-26T05:08:56;95201.47;;;4.56
57468;BMP280;43311;51.196;7.518;2024-02-26T05:11:21;95192.03;;;4.46
57468;BMP280;43311;51.196;7.518;2024-02-26T05:13:48;95197.41;;;4.55
57468;BMP280;43311;51.196;7.518;2024-02-26T05:16:13;95183.09;;;4.47
57468;BMP280;43311;51.196;7.518;2024-02-26T05:18:38;95206.66;;;4.56
57468;BMP280;43311;51.196;7.518;2024-02-26T05:21:04;95196.75;;;4.51
57468;BMP280;43311;51.196;7.518;2024-02-26T05:23:29;95189.75;;;4.48
57468;BMP280;43311;51.196;7.518;2024-02-26T05:25:55;95195.28;;;4.50
57468;BMP280;43311;51.196;7.518;2024-02-26T05:28:20;95196.16;;;4.43
57468;BMP280;43311;51.196;7.518;2024-02-26T05:30:46;95195.28;;;4.50
57468;BMP280;43311;51.196;7.518;2024-02-26T05:33:11;95199.47;;;4.44
57468;BMP280;43311;51.196;7.518;2024-02-26T05:35:37;95202.41;;;4.46
57468;BMP280;43311;51.196;7.518;2024-02-26T05:38:03;95207.31;;;4.40
57468;BMP280;43311;51.196;7.518;2024-02-26T05:40:28;95215.69;;;4.48
57468;BMP280;43311;51.196;7.518;2024-02-26T05:42:55;95207.59;;;4.46
57468;BMP280;43311;51.196;7.518;2024-02-26T05:45:20;95219.28;;;4.54
57468;BMP280;43311;51.196;7.518;2024-02-26T05:47:47;95201.72;;;4.42
57468;BMP280;43311;51.196;7.518;2024-02-26T05:50:12;95222.72;;;4.51
57468;BMP280;43311;51.196;7.518;2024-02-26T05:52:38;95216.91;;;4.43
57468;BMP280;43311;51.196;7.518;2024-02-26T05:55:04;95227.75;;;4.38
57468;BMP280;43311;51.196;7.518;2024-02-26T05:57:31;95239.41;;;4.50
57468;BMP280;43311;51.196;7.518;2024-02-26T05:59:56;95206.44;;;4.27
57468;BMP280;43311;51.196;7.518;2024-02-26T06:02:23;95231.59;;;4.30
57468;BMP280;43311;51.196;7.518;2024-02-26T06:04:48;95243.19;;;4.45
57468;BMP280;43311;51.196;7.518;2024-02-26T06:07:13;95243.13;;;4.49
57468;BMP280;43311;51.196;7.518;2024-02-26T06:09:38;95237.72;;;4.40
57468;BMP280;43311;51.196;7.518;2024-02-26T06:12:05;95250.19;;;4.48
57468;BMP280;43311;51.196;7.518;2024-02-26T06:14:30;95234.91;;;4.31
57468;BMP280;43311;51.196;7.518;2024-02-26T06:16:55;95254.31;;;4.46
57468;BMP280;43311;51.196;7.518;2024-02-26T06:19:21;95255.56;;;4.38
57468;BMP280;43311;51.196;7.518;2024-02-26T06:21:46;95255.22;;;4.36
57468;BMP280;43311;51.196;7.518;2024-02-26T06:24:12;95261.94;;;4.33
57468;BMP280;43311;51.196;7.518;2024-02-26T06:26:38;95250.28;;;4.22
57468;BMP280;43311;51.196;7.518;2024-02-26T06:29:03;95265.38;;;4.27
57468;BMP280;43311;51.196;7.518;2024-02-26T06:31:29;95259.84;;;4.25
57468;BMP280;43311;51.196;7.518;2024-02-26T06:33:54;95265.38;;;4.27
57468;BMP280;43311;51.196;7.518;2024-02-26T06:36:20;95271.03;;;4.22
57468;BMP280;43311;51.196;7.518;2024-02-26T06:38:46;95257.44;;;4.14
57468;BMP280;43311;51.196;7.518;2024-02-26T06:41:11;95271.75;;;4.22
57468;BMP280;43311;51.196;7.518;2024-02-26T06:43:37;95273.28;;;4.20
57468;BMP280;43311;51.196;7.518;2024-02-26T06:46:02;95288.72;;;4.27
57468;BMP280;43311;51.196;7.518;2024-02-26T06:48:27;95263.47;;;4.08
57468;BMP280;43311;51.196;7.518;2024-02-26T06:50:53;95276.28;;;4.18
57468;BMP280;43311;51.196;7.518;2024-02-26T06:53:18;95279.13;;;4.24
57468;BMP280;43311;51.196;7.518;2024-02-26T06:55:44;95280.00;;;4.17
57468;BMP280;43311;51.196;7.518;2024-02-26T06:58:09;95293.25;;;4.23
57468;BMP280;43311;51.196;7.518;2024-02-26T07:00:35;95289.97;;;4.19
57468;BMP280;43311;51.196;7.518;2024-02-26T07:03:00;95290.25;;;4.24
57468;BMP280;43311;51.196;7.518;2024-02-26T07:05:27;95288.31;;;4.28
57468;BMP280;43311;51.196;7.518;2024-02-26T07:07:52;95296.22;;;4.21
57468;BMP280;43311;51.196;7.518;2024-02-26T07:10:18;95298.09;;;4.21
57468;BMP280;43311;51.196;7.518;2024-02-26T07:12:43;95295.59;;;4.14
57468;BMP280;43311;51.196;7.518;2024-02-26T07:15:09;95282.31;;;4.12
57468;BMP280;43311;51.196;7.518;2024-02-26T07:17:35;95303.63;;;4.23
57468;BMP280;43311;51.196;7.518;2024-02-26T07:20:00;95305.06;;;4.24
57468;BMP280;43311;51.196;7.518;2024-02-26T07:22:26;95316.25;;;4.21
57468;BMP280;43311;51.196;7.518;2024-02-26T07:24:51;95316.28;;;4.17
57468;BMP280;43311;51.196;7.518;2024-02-26T07:27:18;95332.00;;;4.30
57468;BMP280;43311;51.196;7.518;2024-02-26T07:29:44;95333.16;;;4.29
57468;BMP280;43311;51.196;7.518;2024-02-26T07:32:09;95311.97;;;4.11
57468;BMP280;43311;51.196;7.518;2024-02-26T07:34:35;95336.13;;;4.27
57468;BMP280;43311;51.196;7.518;2024-02-26T07:37:03;95325.50;;;4.22
57468;BMP280;43311;51.196;7.518;2024-02-26T07:39:28;95314.16;;;4.12
57468;BMP280;43311;51.196;7.518;2024-02-26T07:41:53;95333.22;;;4.25
57468;BMP280;43311;51.196;7.518;2024-02-26T07:44:19;95316.28;;;4.17
57468;BMP280;43311;51.196;7.518;2024-02-26T07:46:44;95316.03;;;4.12
57468;BMP280;43311;51.196;7.518;2024-02-26T07:49:10;95330.69;;;4.22
57468;BMP280;43311;51.196;7.518;2024-02-26T07:51:35;95332.56;;;4.18
57468;BMP280;43311;51.196;7.518;2024-02-26T07:54:00;95323.06;;;4.11
57468;BMP280;43311;51.196;7.518;2024-02-26T07:56:26;95325.59;;;4.15
57468;BMP280;43311;51.196;7.518;2024-02-26T07:58:51;95319.03;;;4.07
57468;BMP280;43311;51.196;7.518;2024-02-26T08:01:17;95339.59;;;4.21
57468;BMP280;43311;51.196;7.518;2024-02-26T08:03:42;95333.38;;;4.15
57468;BMP280;43311;51.196;7.518;2024-02-26T08:06:08;95350.56;;;4.28
57468;BMP280;43311;51.196;7.518;2024-02-26T08:08:33;95317.66;;;4.03
57468;BMP280;43311;51.196;7.518;2024-02-26T08:10:59;95352.56;;;4.21
57468;BMP280;43311;51.196;7.518;2024-02-26T08:13:24;95355.38;;;4.30
57468;BMP280;43311;51.196;7.518;2024-02-26T08:15:51;95339.25;;;4.19
57468;BMP280;43311;51.196;7.518;2024-02-26T08:18:17;95357.59;;;4.31
57468;BMP280;43311;51.196;7.518;2024-02-26T08:20:43;95348.78;;;4.25
57468;BMP280;43311;51.196;7.518;2024-02-26T08:23:08;95352.25;;;4.38
57468;BMP280;43311;51.196;7.518;2024-02-26T08:25:33;95351.59;;;4.34
57468;BMP280;43311;51.196;7.518;2024-02-26T08:27:59;95338.50;;;4.18
57468;BMP280;43311;51.196;7.518;2024-02-26T08:30:24;95351.66;;;4.31
57468;BMP280;43311;51.196;7.518;2024-02-26T08:32:49;95353.91;;;4.29
57468;BMP280;43311;51.196;7.518;2024-02-26T08:35:15;95353.00;;;4.39
57468;BMP280;43311;51.196;7.518;2024-02-26T08:37:44;95368.34;;;4.53
57468;BMP280;43311;51.196;7.518;2024-02-26T08:40:10;95348.59;;;4.36
57468;BMP280;43311;51.196;7.518;2024-02-26T08:42:35;95352.34;;;4.35
57468;BMP280;43311;51.196;7.518;2024-02-26T08:45:01;95359.22;;;4.45
57468;BMP280;43311;51.196;7.518;2024-02-26T08:47:27;95352.22;;;4.42
57468;BMP280;43311;51.196;7.518;2024-02-26T08:49:53;95361.00;;;4.48
57468;BMP280;43311;51.196;7.518;2024-02-26T08:52:18;95362.41;;;4.52
57468;BMP280;43311;51.196;7.518;2024-02-26T08:54:44;95349.25;;;4.43
57468;BMP280;43311;51.196;7.518;2024-02-26T08:57:09;95372.06;;;4.52
57468;BMP280;43311;51.196;7.518;2024-02-26T08:59:35;95368.78;;;4.48
57468;BMP280;43311;51.196;7.518;2024-02-26T09:02:00;95379.47;;;4.53
57468;BMP280;43311;51.196;7.518;2024-02-26T09:04:25;95386.03;;;4.58
57468;BMP280;43311;51.196;7.518;2024-02-26T09:06:52;95386.03;;;4.58
57468;BMP280;43311;51.196;7.518;2024-02-26T09:09:18;95381.00;;;4.51
57468;BMP280;43311;51.196;7.518;2024-02-26T09:11:43;95391.81;;;4.46
57468;BMP280;43311;51.196;7.518;2024-02-26T09:14:09;95399.81;;;4.55
57468;BMP280;43311;51.196;7.518;2024-02-26T09:16:34;95402.41;;;4.55
57468;BMP280;43311;51.196;7.518;2024-02-26T09:18:59;95392.94;;;4.45
57468;BMP280;43311;51.196;7.518;2024-02-26T09:21:25;95403.44;;;4.61
57468;BMP280;43311;51.196;7.518;2024-02-26T09:23:51;95398.59;;;4.63
57468;BMP280;43311;51.196;7.518;2024-02-26T09:26:17;95404.09;;;4.65
57468;BMP280;43311;51.196;7.518;2024-02-26T09:28:43;95412.78;;;4.77
57468;BMP280;43311;51.196;7.518;2024-02-26T09:31:08;95411.78;;;4.72
57468;BMP280;43311;51.196;7.518;2024-02-26T09:33:34;95423.56;;;4.76
57468;BMP280;43311;51.196;7.518;2024-02-26T09:35:59;95416.81;;;4.82
57468;BMP280;43311;51.196;7.518;2024-02-26T09:38:28;95412.13;;;4.73
57468;BMP280;43311;51.196;7.518;2024-02-26T09:40:56;95411.31;;;4.76
57468;BMP280;43311;51.196;7.518;2024-02-26T09:43:23;95410.03;;;4.88
57468;BMP280;43311;51.196;7.518;2024-02-26T09:45:53;95405.56;;;4.88
57468;BMP280;43311;51.196;7.518;2024-02-26T09:48:19;95406.22;;;4.92
57468;BMP280;43311;51.196;7.518;2024-02-26T09:50:45;95417.34;;;4.93
57468;BMP280;43311;51.196;7.518;2024-02-26T09:53:12;95432.66;;;5.07
57468;BMP280;43311;51.196;7.518;2024-02-26T09:55:37;95416.47;;;4.99
57468;BMP280;43311;51.196;7.518;2024-02-26T09:58:05;95427.53;;;5.03
57468;BMP280;43311;51.196;7.518;2024-02-26T10:00:31;95425.75;;;5.00
57468;BMP280;43311;51.196;7.518;2024-02-26T10:03:09;95421.63;;;5.03
57468;BMP280;43311;51.196;7.518;2024-02-26T10:05:38;95439.81;;;5.22
57468;BMP280;43311;51.196;7.518;2024-02-26T10:08:04;95437.63;;;5.21
57468;BMP280;43311;51.196;7.518;2024-02-26T10:10:30;95442.97;;;5.33
57468;BMP280;43311;51.196;7.518;2024-02-26T10:12:58;95441.72;;;5.41
57468;BMP280;43311;51.196;7.518;2024-02-26T10:15:23;95438.69;;;5.42
57468;BMP280;43311;51.196;7.518;2024-02-26T10:17:49;95441.84;;;5.34
57468;BMP280;43311;51.196;7.518;2024-02-26T10:20:16;95453.50;;;5.45
57468;BMP280;43311;51.196;7.518;2024-02-26T10:22:43;95472.75;;;5.48
57468;BMP280;43311;51.196;7.518;2024-02-26T10:25:09;95464.81;;;5.55
57468;BMP280;43311;51.196;7.518;2024-02-26T10:27:35;95459.31;;;5.53
57468;BMP280;43311;51.196;7.518;2024-02-26T10:30:04;95469.50;;;5.63
57468;BMP280;43311;51.196;7.518;2024-02-26T10:32:30;95460.63;;;5.61
57468;BMP280;43311;51.196;7.518;2024-02-26T10:34:56;95458.38;;;5.63
57468;BMP280;43311;51.196;7.518;2024-02-26T10:37:22;95472.56;;;5.78
57468;BMP280;43311;51.196;7.518;2024-02-26T10:39:48;95470.00;;;5.74
57468;BMP280;43311;51.196;7.518;2024-02-26T10:42:13;95454.13;;;5.53
57468;BMP280;43311;51.196;7.518;2024-02-26T10:44:40;95456.72;;;5.53
57468;BMP280;43311;51.196;7.518;2024-02-26T10:47:07;95467.75;;;5.57
57468;BMP280;43311;51.196;7.518;2024-02-26T10:49:35;95485.03;;;5.67
57468;BMP280;43311;51.196;7.518;2024-02-26T10:52:01;95478.75;;;5.64
57468;BMP280;43311;51.196;7.518;2024-02-26T10:54:29;95490.06;;;5.77
57468;BMP280;43311;51.196;7.518;2024-02-26T10:56:56;95489.31;;;5.77
57468;BMP280;43311;51.196;7.518;2024-02-26T10:59:22;95481.16;;;5.75
57468;BMP280;43311;51.196;7.518;2024-02-26T11:16:01;95523.41;;;5.82
57468;BMP280;43311;51.196;7.518;2024-02-26T11:18:27;95530.53;;;5.98
57468;BMP280;43311;51.196;7.518;2024-02-26T11:28:46;95467.78;;;5.76
57468;BMP280;43311;51.196;7.518;2024-02-26T11:31:20;95503.91;;;5.90
57468;BMP280;43311;51.196;7.518;2024-02-26T11:33:53;95503.84;;;5.94
57468;BMP280;43311;51.196;7.518;2024-02-26T11:36:19;95493.06;;;5.76
57468;BMP280;43311;51.196;7.518;2024-02-26T11:38:46;95514.50;;;5.99
57468;BMP280;43311;51.196;7.518;2024-02-26T11:41:15;95501.56;;;5.96
57468;BMP280;43311;51.196;7.518;2024-02-26T11:46:51;95522.84;;;6.10
57468;BMP280;43311;51.196;7.518;2024-02-26T11:51:52;95529.00;;;6.35
57468;BMP280;43311;51.196;7.518;2024-02-26T11:57:04;95525.75;;;6.31
57468;BMP280;43311;51.196;7.518;2024-02-26T11:59:39;95532.09;;;6.30
57468;BMP280;43311;51.196;7.518;2024-02-26T12:02:07;95522.94;;;6.22
57468;BMP280;43311;51.196;7.518;2024-02-26T12:04:33;95502.16;;;6.03
57468;BMP280;43311;51.196;7.518;2024-02-26T12:07:02;95531.28;;;6.33
57468;BMP280;43311;51.196;7.518;2024-02-26T12:09:41;95530.63;;;6.29
57468;BMP280;43311;51.196;7.518;2024-02-26T12:12:13;95525.75;;;6.31
57468;BMP280;43311;51.196;7.518;2024-02-26T12:14:53;95535.22;;;6.41
57468;BMP280;43311;51.196;7.518;2024-02-26T12:17:22;95531.13;;;6.40
57468;BMP280;43311;51.196;7.518;2024-02-26T12:19:48;95521.53;;;6.37
57468;BMP280;43311;51.196;7.518;2024-02-26T12:22:14;95506.13;;;6.27
57468;BMP280;43311;51.196;7.518;2024-02-26T12:24:40;95517.38;;;6.24
57468;BMP280;43311;51.196;7.518;2024-02-26T12:27:05;95513.47;;;6.32
57468;BMP280;43311;51.196;7.518;2024-02-26T12:29:31;95519.41;;;6.32
57468;BMP280;43311;51.196;7.518;2024-02-26T12:31:56;95522.91;;;6.42
57468;BMP280;43311;51.196;7.518;2024-02-26T12:34:22;95527.81;;;6.40
57468;BMP280;43311;51.196;7.518;2024-02-26T12:36:48;95531.88;;;6.41
57468;BMP280;43311;51.196;7.518;2024-02-26T12:39:14;95532.75;;;6.34
57468;BMP280;43311;51.196;7.518;2024-02-26T12:41:40;95537.88;;;6.38
57468;BMP280;43311;51.196;7.518;2024-02-26T12:44:05;95542.53;;;6.46
57468;BMP280;43311;51.196;7.518;2024-02-26T12:46:32;95553.22;;;6.52
57468;BMP280;43311;51.196;7.518;2024-02-26T12:48:58;95546.09;;;6.36
57468;BMP280;43311;51.196;7.518;2024-02-26T12:51:25;95547.09;;;6.42
57468;BMP280;43311;51.196;7.518;2024-02-26T12:53:52;95548.03;;;6.32
57468;BMP280;43311;51.196;7.518;2024-02-26T12:56:18;95568.16;;;6.48
57468;BMP280;43311;51.196;7.518;2024-02-26T12:58:45;95557.47;;;6.26
57468;BMP280;43311;51.196;7.518;2024-02-26T13:01:14;95549.19;;;6.31
57468;BMP280;43311;51.196;7.518;2024-02-26T13:03:41;95581.19;;;6.48
57468;BMP280;43311;51.196;7.518;2024-02-26T13:06:07;95593.59;;;6.40
57468;BMP280;43311;51.196;7.518;2024-02-26T13:08:32;95577.13;;;6.27
57468;BMP280;43311;51.196;7.518;2024-02-26T13:11:01;95566.25;;;6.32
57468;BMP280;43311;51.196;7.518;2024-02-26T13:13:26;95581.50;;;6.50
57468;BMP280;43311;51.196;7.518;2024-02-26T13:16:05;95586.31;;;6.51
57468;BMP280;43311;51.196;7.518;2024-02-26T13:18:33;95601.66;;;6.65
57468;BMP280;43311;51.196;7.518;2024-02-26T13:21:15;95603.06;;;6.50
57468;BMP280;43311;51.196;7.518;2024-02-26T13:23:41;95624.81;;;6.60
57468;BMP280;43311;51.196;7.518;2024-02-26T13:26:08;95614.47;;;6.56
57468;BMP280;43311;51.196;7.518;2024-02-26T13:28:34;95628.34;;;6.69
57468;BMP280;43311;51.196;7.518;2024-02-26T13:31:00;95614.75;;;6.62
57468;BMP280;43311;51.196;7.518;2024-02-26T13:33:27;95616.16;;;6.66
57468;BMP280;43311;51.196;7.518;2024-02-26T13:35:54;95617.75;;;6.60
57468;BMP280;43311;51.196;7.518;2024-02-26T13:38:19;95611.22;;;6.52
57468;BMP280;43311;51.196;7.518;2024-02-26T13:40:45;95622.97;;;6.60
57468;BMP280;43311;51.196;7.518;2024-02-26T13:43:10;95636.00;;;6.60
57468;BMP280;43311;51.196;7.518;2024-02-26T13:45:37;95642.56;;;6.65
57468;BMP280;43311;51.196;7.518;2024-02-26T13:48:08;95634.03;;;6.64
57468;BMP280;43311;51.196;7.518;2024-02-26T13:50:35;95636.19;;;6.50
57468;BMP280;43311;51.196;7.518;2024-02-26T13:53:00;95632.47;;;6.51
57468;BMP280;43311;51.196;7.518;2024-02-26T13:55:26;95631.22;;;6.55
57468;BMP280;43311;51.196;7.518;2024-02-26T13:57:56;95640.56;;;6.72
57468;BMP280;43311;51.196;7.518;2024-02-26T14:00:22;95645.63;;;6.79
57468;BMP280;43311;51.196;7.518;2024-02-26T14:02:48;95636.50;;;6.71
57468;BMP280;43311;51.196;7.518;2024-02-26T14:05:13;95640.28;;;6.86
57468;BMP280;43311;51.196;7.518;2024-02-26T14:07:39;95649.91;;;6.89
57468;BMP280;43311;51.196;7.518;2024-02-26T14:10:05;95638.06;;;6.84
57468;BMP280;43311;51.196;7.518;2024-02-26T14:12:30;95638.81;;;6.85
57468;BMP280;43311;51.196;7.518;2024-02-26T14:14:56;95631.31;;;6.87
57468;BMP280;43311;51.196;7.518;2024-02-26T14:17:21;95629.72;;;6.93
57468;BMP280;43311;51.196;7.518;2024-02-26T14:19:48;95657.75;;;7.05
57468;BMP280;43311;51.196;7.518;2024-02-26T14:22:14;95654.00;;;7.06
57468;BMP280;43311;51.196;7.518;2024-02-26T14:24:41;95643.41;;;7.13
57468;BMP280;43311;51.196;7.518;2024-02-26T14:27:11;95664.09;;;7.20
57468;BMP280;43311;51.196;7.518;2024-02-26T14:29:39;95644.38;;;7.03
57468;BMP280;43311;51.196;7.518;2024-02-26T14:32:07;95669.47;;;7.13
57468;BMP280;43311;51.196;7.518;2024-02-26T14:34:32;95662.78;;;7.12
57468;BMP280;43311;51.196;7.518;2024-02-26T14:36:58;95668.47;;;7.07
57468;BMP280;43311;51.196;7.518;2024-02-26T14:39:23;95664.88;;;7.01
57468;BMP280;43311;51.196;7.518;2024-02-26T14:41:48;95662.53;;;6.90
57468;BMP280;43311;51.196;7.518;2024-02-26T14:44:14;95657.44;;;6.83